Leuven Template:n sääsivut:

Template documentation
and downloads

And another site



Normaali sää.    Ei varoituksia

Select another period ( hide this area )

Yksiköt Aika Custom range Directly to
Metriset Englantilaiset Molemmat
Päivittäin Viikoittain Kuukausittain Vuosittain
use both date-selectors for a custom range
previous Päivä
With this date

WeatherUnderground graphs for this period ( click here )


Päivittäin yhteenveto Perjantai 19 Heinäkuu 2019
Aika Temp. ( °C ) Dew pt. ( °C ) Tuuli ( km/h ) Alkaa Puuska ( km/h ) Ilmanpaine ( hPa ) Humid.( % ) Rainrate ( cm ) Aurinkoenergia ( W/m2 )
Ylin18,9 14,9 16,9 Pohjoisluode ( 514/1149 ) 12,1 1008,9 90 - 622
Keskiarvo16,0 13,4 8,5 Pohjoinen #67/135 3,9 1008,6 85 - 141 #81/135
Alin14,1 12,1 -   0,0 1008,4 76 -  
Päivittäin Tabular details for Perjantai 19 Heinäkuu 2019
Aika Temp. ( °C ) Dew pt. ( °C ) Tuuli ( km/h ) Alkaa Puuska ( km/h ) Ilmanpaine ( hPa ) Humid.( % ) Rainrate ( cm ) Aurinkoenergia ( W/m2 )
00:03 14,1 12,1 1,6 Pohjoinen   1008,8 88 - -
00:08 14,3 12,4 1,6 Pohjoinen   1008,9 88 - -
00:14 14,9 12,6   Tyyntä   1008,8 86 - -
00:19 15,3 12,6 3,4 Pohjoinen 0,8 1008,8 84 - -
00:23 15,6 12,7 3,4 Pohjoinen 1,0 1008,8 83 - -
00:29 15,8 12,8 8,4 Pohjoinen 4,5 1008,8 82 - -
00:34 16,0 12,7 5,6 Pohjoinen 1,1 1008,7 81 - -
00:38 16,1 12,8   Tyyntä   1008,7 81 - -
00:44 16,0 12,7 1,9 Pohjoinen 0,2 1008,8 81 - -
00:49 16,0 12,7 1,9 Pohjoinen   1008,8 81 - -
00:54 16,1 12,8 1,9 Pohjoinen   1008,8 81 - -
00:59 16,1 12,8 7,4 Pohjoinen 2,7 1008,8 81 - -
01:04 16,0 12,7 1,6 Pohjoinen   1008,8 81 - -
01:09 15,9 12,7 5,6 Pohjoinen 1,8 1008,8 81 - -
01:13 15,9 12,6 1,9 Pohjoinen 0,2 1008,8 81 - -
01:18 15,8 12,6   Tyyntä   1008,8 81 - -
01:23 15,8 12,6 7,4 Pohjoinen 0,8 1008,9 81 - -
01:29 15,8 12,6 1,9 Pohjoinen 0,3 1008,8 81 - -
01:33 15,9 12,6 3,7 Pohjoinen 1,1 1008,8 81 - -
01:38 15,8 12,6 3,4 Pohjoinen 1,8 1008,8 81 - -
01:43 15,9 12,6 3,7 Pohjoinen 0,6 1008,8 81 - -
01:48 15,8 12,6 5,1 Pohjoinen 1,4 1008,8 81 - -
01:53 15,8 12,6 3,7 Pohjoinen   1008,8 81 - -
01:58 15,8 12,8 9,3 Pohjoinen 1,8 1008,8 82 - -
02:03 15,8 12,8 5,1 Pohjoinen 1,1 1008,7 82 - -
02:09 15,8 12,8 1,9 Pohjoinen 0,5 1008,8 82 - -
02:13 15,8 12,9 10,1 Pohjoinen 4,3 1008,8 83 - -
02:19 15,7 12,8 10,1 Luode 7,1 1008,8 83 - -
02:24 15,6 12,7 6,8 Pohjoisluode 1,1 1008,8 83 - -
02:28 15,6 12,7 9,3 Pohjoisluode 5,6 1008,7 83 - -
02:34 15,6 12,9 7,4 Pohjoisluode 2,7 1008,8 84 - -
02:38 15,7 12,8 5,1 Pohjoisluode 2,4 1008,7 83 - -
02:44 15,7 12,8 7,4 Pohjoisluode 5,0 1008,8 83 - -
02:49 15,6 12,9 1,6 Pohjoisluode 0,2 1008,8 84 - -
02:53 15,6 12,9 7,4 Pohjoisluode 1,6 1008,8 84 - -
02:59 15,5 12,8 9,3 Pohjoisluode 2,9 1008,7 84 - -
03:04 15,4 12,8 7,4 Pohjoisluode 1,0 1008,7 84 - -
03:09 15,4 12,9 1,9 Pohjoisluode   1008,7 85 - -
03:14 15,3 12,8 3,4 Pohjoisluode 0,6 1008,6 85 - -
03:18 15,3 12,8 11,9 Pohjoisluode 8,7 1008,7 85 - -
03:24 15,3 12,8 3,7 Pohjoisluode 1,0 1008,7 85 - -
03:29 15,3 12,9 1,9 Pohjoisluode   1008,7 86 - -
03:33 15,3 12,9 3,7 Pohjoisluode 1,0 1008,7 86 - -
03:38 15,2 12,9 9,3 Pohjoisluode 3,7 1008,7 86 - -
03:43 15,3 12,9 9,3 Pohjoisluode 4,3 1008,8 86 - -
03:48 15,3 12,9 7,4 Pohjoisluode 3,4 1008,8 86 - -
03:53 15,3 12,9 7,4 Pohjoisluode 1,1 1008,8 86 - -
03:58 15,2 12,9 7,4 Pohjoisluode 1,4 1008,7 86 - -
04:03 15,2 12,8 9,3 Pohjoisluode 3,5 1008,7 86 - -
04:08 15,1 12,9 10,1 Pohjoisluode 5,6 1008,7 87 - -
04:13 15,1 12,9 3,7 Pohjoisluode 1,6 1008,6 87 - -
04:18 15,0 12,8 10,1 Pohjoisluode 4,3 1008,7 87 - -
04:24 15,0 12,8 7,4 Pohjoisluode 2,9 1008,7 87 - -
04:28 14,9 13,0 7,4 Pohjoisluode 3,5 1008,7 88 - -
04:33 14,9 12,9 9,3 Pohjoinen 3,1 1008,5 88 - 5
04:39 14,9 13,0 3,7 Pohjoinen   1008,6 88 - 7
04:43 14,9 12,9 9,3 Pohjoinen 1,6 1008,7 88 - 9
04:49 14,8 12,9 7,4 Pohjoinen 2,4 1008,7 88 - 11
04:53 14,8 12,9 5,6 Pohjoinen 2,1 1008,7 88 - 12
04:58 14,8 13,1 7,4 Pohjoinen 1,6 1008,7 89 - 14
05:04 14,8 13,1 9,3 Pohjoinen 5,1 1008,7 89 - 16
05:08 14,8 13,1 7,4 Pohjoinen 0,3 1008,7 89 - 18
05:14 14,8 13,1 3,7 Pohjoisluode 1,8 1008,7 89 - 19
05:18 14,8 13,1 3,7 Pohjoinen 0,5 1008,7 89 - 21
05:24 14,9 13,1 7,4 Pohjoinen 1,8 1008,7 89 - 26
05:29 14,9 13,2 7,4 Pohjoinen 1,8 1008,7 89 - 32
05:33 14,9 13,3 9,3 Pohjoinen 5,5 1008,7 90 - 35
05:39 15,0 13,4 3,4 Pohjoinen 0,6 1008,7 90 - 42
05:44 15,0 13,4 9,3 Pohjoisluode 1,1 1008,7 90 - 47
05:48 15,1 13,4 6,8 Pohjoisluode 1,6 1008,7 90 - 51
05:53 15,1 13,5 9,3 Pohjoinen 2,7 1008,7 90 - 53
05:58 15,2 13,6 10,1 Pohjoinen 6,8 1008,7 90 - 60
06:03 15,2 13,6 10,1 Pohjoinen 2,7 1008,7 90 - 67
06:09 15,3 13,5 10,1 Pohjoiskoillinen 6,3 1008,6 89 - 76
06:13 15,3 13,6 13,0 Pohjoiskoillinen 5,1 1008,6 89 - 81
06:18 15,5 13,7 10,1 Pohjoinen 1,8 1008,6 89 - 90
06:23 15,6 13,7 9,3 Pohjoinen 3,2 1008,6 89 - 93
06:28 15,6 13,8 11,1 Pohjoisluode 0,2 1008,6 89 - 95
06:34 15,6 13,6 9,3 Pohjoisluode 3,4 1008,6 88 - 95
06:38 15,6 13,6 8,4 Pohjoinen 2,7 1008,6 88 - 93
06:43 15,6 13,8 7,4 Pohjoinen 1,6 1008,6 89 - 84
06:49 15,6 13,7 11,1 Pohjoisluode 6,1 1008,6 89 - 72
06:53 15,6 13,7 13,5 Luode 3,1 1008,6 89 - 60
06:59 15,6 13,7 9,3 Pohjoinen 5,6 1008,6 89 - 54
07:03 15,6 13,8 10,1 Pohjoinen 4,7 1008,5 89 - 54
07:09 15,6 13,8 9,3 Pohjoinen 4,5 1008,5 89 - 39
07:14 15,7 13,8 8,4 Pohjoinen 4,3 1008,5 89 - 49
07:18 15,7 13,8 7,4 Pohjoinen 1,3 1008,5 89 - 42
07:24 15,7 13,7 7,4 Pohjoinen 3,9 1008,4 88 - 42
07:28 15,7 13,8 3,7 Pohjoinen 0,2 1008,4 89 - 51
07:34 15,7 13,9 9,3 Pohjoinen 2,4 1008,5 89 - 54
07:39 15,7 13,7 8,4 Pohjoinen 2,9 1008,5 88 - 60
07:43 15,7 13,7 10,1 Pohjoinen 3,7 1008,4 88 - 67
07:49 15,8 13,8 11,9 Pohjoisluode 6,1 1008,4 88 - 88
07:54 15,8 13,8 3,4 Pohjoisluode 1,0 1008,5 88 - 160
07:59 16,0 14,0 7,4 Pohjoinen 2,1 1008,5 88 - 172
08:04 16,2 14,1 8,4 Pohjoinen 3,4 1008,5 87 - 181
08:08 16,3 14,2 10,1 Pohjoisluode 6,8 1008,5 87 - 148
08:13 16,4 14,1 11,1 Pohjoinen 6,4 1008,5 86 - 220
08:18 16,5 14,2 10,1 Luode 9,0 1008,5 86 - 221
08:23 16,7 14,4 13,5 Pohjoisluode 7,7 1008,5 86 - 269
08:28 17,1 14,6 15,3 Pohjoisluode 8,0 1008,4 85 - 216
08:34 17,1 14,2 15,3 Pohjoiskoillinen 9,7 1008,4 83 - 262
08:38 17,0 14,3 9,3 Pohjoisluode 4,8 1008,5 84 - 204
08:43 17,1 14,2 14,8 Pohjoinen 8,7 1008,5 83 - 202
08:48 16,9 14,1 15,3 Luode 10,8 1008,5 83 - 200
08:53 17,1 14,2 13,0 Pohjoisluode 7,2 1008,4 83 - 255
08:59 17,2 14,1 15,3 Pohjoisluode 11,4 1008,4 82 - 264
09:03 17,2 14,1 13,5 Pohjoinen 9,0 1008,4 82 - 221
09:09 17,2 14,1 16,9 Pohjoisluode 10,8 1008,4 82 - 213
09:13 17,3 14,2 15,3 Pohjoinen 10,3 1008,5 82 - 148
09:18 17,2 14,1 15,3 Pohjoinen 10,6 1008,5 82 - 190
09:24 17,1 14,2 13,0 Pohjoisluode 7,2 1008,5 83 - 139
09:28 17,1 14,2 13,5 Länsiluode 10,6 1008,5 83 - 135
09:34 17,1 14,2 10,1 Pohjoinen 4,0 1008,5 83 - 132
09:39 17,2 14,3 13,0 Pohjoinen 4,5 1008,5 83 - 137
09:44 17,3 14,2 11,9 Pohjoinen 7,2 1008,5 82 - 257
09:49 17,6 14,3 15,3 Pohjoiskoillinen 6,8 1008,5 81 - 274
09:53 18,0 14,5 16,9 Pohjoisluode 10,8 1008,5 80 - 316
09:59 18,3 14,6 13,5 Pohjoisluode 9,0 1008,5 79 - 374
10:03 18,6 14,9 11,9 Pohjoiskoillinen 4,2 1008,5 79 - 622
10:09 18,9 14,8 9,3 Pohjoisluode 5,1 1008,5 77 - 582
10:14 18,6 14,3 11,9 Pohjoinen 7,1 1008,5 76 - 120
10:19 18,2 14,3 13,5 Pohjoisluode 8,0 1008,5 78 - 179
10:24 18,0 14,3 15,3 Pohjoisluode 8,2 1008,5 79 - 225
10:28 17,9 14,2 10,1 Pohjoisluode 5,8 1008,5 79 - 105
10:33 17,8 14,2 15,3 Pohjoisluode 9,8 1008,5 79 - 113
10:38 17,7 14,2 15,3 Pohjoisluode 11,6 1008,5 80 - 125
10:44 17,7 14,2 10,1 Pohjoinen 6,9 1008,5 80 - 199
10:48 17,8 14,3 11,9 Pohjoisluode 7,4 1008,5 80 - 392
10:53 18,2 14,5 11,1 Pohjoisluode 6,4 1008,4 79 - 276
10:58 18,6 14,8 11,9 Pohjoinen 8,0 1008,4 79 - 346
11:03 18,7 14,6 11,9 Pohjoiskoillinen 4,3 1008,4 77 - 297
11:09 18,7 14,6 15,3 Pohjoisluode 12,1 1008,4 77 - 232
11:13 18,5 14,4 16,9 Pohjoisluode 11,6 1008,5 77 - 146
Päivittäin yhteenveto Perjantai 19 Heinäkuu 2019
Aika Temp. ( °C ) Dew pt. ( °C ) Tuuli ( km/h ) Alkaa Puuska ( km/h ) Ilmanpaine ( hPa ) Humid.( % ) Rainrate ( cm ) Aurinkoenergia ( W/m2 )
Ylin18,9 14,9 16,9 Pohjoisluode ( 514/1149 ) 12,1 1008,9 90 - 622
Keskiarvo16,0 13,4 8,5 Pohjoinen #67/135 3,9 1008,6 85 - 141 #81/135
Alin14,1 12,1 -   0,0 1008,4 76 -  
Päivittäin Tabular details for Perjantai 19 Heinäkuu 2019
Aika Temp. ( °C ) Dew pt. ( °C ) Tuuli ( km/h ) Alkaa Puuska ( km/h ) Ilmanpaine ( hPa ) Humid.( % ) Rainrate ( cm ) Aurinkoenergia ( W/m2 )
00:03 14,1 12,1 1,6 Pohjoinen   1008,8 88 - -
00:08 14,3 12,4 1,6 Pohjoinen   1008,9 88 - -
00:14 14,9 12,6   Tyyntä   1008,8 86 - -
00:19 15,3 12,6 3,4 Pohjoinen 0,8 1008,8 84 - -
00:23 15,6 12,7 3,4 Pohjoinen 1,0 1008,8 83 - -
00:29 15,8 12,8 8,4 Pohjoinen 4,5 1008,8 82 - -
00:34 16,0 12,7 5,6 Pohjoinen 1,1 1008,7 81 - -
00:38 16,1 12,8   Tyyntä   1008,7 81 - -
00:44 16,0 12,7 1,9 Pohjoinen 0,2 1008,8 81 - -
00:49 16,0 12,7 1,9 Pohjoinen   1008,8 81 - -
00:54 16,1 12,8 1,9 Pohjoinen   1008,8 81 - -
00:59 16,1 12,8 7,4 Pohjoinen 2,7 1008,8 81 - -
01:04 16,0 12,7 1,6 Pohjoinen   1008,8 81 - -
01:09 15,9 12,7 5,6 Pohjoinen 1,8 1008,8 81 - -
01:13 15,9 12,6 1,9 Pohjoinen 0,2 1008,8 81 - -
01:18 15,8 12,6   Tyyntä   1008,8 81 - -
01:23 15,8 12,6 7,4 Pohjoinen 0,8 1008,9 81 - -
01:29 15,8 12,6 1,9 Pohjoinen 0,3 1008,8 81 - -
01:33 15,9 12,6 3,7 Pohjoinen 1,1 1008,8 81 - -
01:38 15,8 12,6 3,4 Pohjoinen 1,8 1008,8 81 - -
01:43 15,9 12,6 3,7 Pohjoinen 0,6 1008,8 81 - -
01:48 15,8 12,6 5,1 Pohjoinen 1,4 1008,8 81 - -
01:53 15,8 12,6 3,7 Pohjoinen   1008,8 81 - -
01:58 15,8 12,8 9,3 Pohjoinen 1,8 1008,8 82 - -
02:03 15,8 12,8 5,1 Pohjoinen 1,1 1008,7 82 - -
02:09 15,8 12,8 1,9 Pohjoinen 0,5 1008,8 82 - -
02:13 15,8 12,9 10,1 Pohjoinen 4,3 1008,8 83 - -
02:19 15,7 12,8 10,1 Luode 7,1 1008,8 83 - -
02:24 15,6 12,7 6,8 Pohjoisluode 1,1 1008,8 83 - -
02:28 15,6 12,7 9,3 Pohjoisluode 5,6 1008,7 83 - -
02:34 15,6 12,9 7,4 Pohjoisluode 2,7 1008,8 84 - -
02:38 15,7 12,8 5,1 Pohjoisluode 2,4 1008,7 83 - -
02:44 15,7 12,8 7,4 Pohjoisluode 5,0 1008,8 83 - -
02:49 15,6 12,9 1,6 Pohjoisluode 0,2 1008,8 84 - -
02:53 15,6 12,9 7,4 Pohjoisluode 1,6 1008,8 84 - -
02:59 15,5 12,8 9,3 Pohjoisluode 2,9 1008,7 84 - -
03:04 15,4 12,8 7,4 Pohjoisluode 1,0 1008,7 84 - -
03:09 15,4 12,9 1,9 Pohjoisluode   1008,7 85 - -
03:14 15,3 12,8 3,4 Pohjoisluode 0,6 1008,6 85 - -
03:18 15,3 12,8 11,9 Pohjoisluode 8,7 1008,7 85 - -
03:24 15,3 12,8 3,7 Pohjoisluode 1,0 1008,7 85 - -
03:29 15,3 12,9 1,9 Pohjoisluode   1008,7 86 - -
03:33 15,3 12,9 3,7 Pohjoisluode 1,0 1008,7 86 - -
03:38 15,2 12,9 9,3 Pohjoisluode 3,7 1008,7 86 - -
03:43 15,3 12,9 9,3 Pohjoisluode 4,3 1008,8 86 - -
03:48 15,3 12,9 7,4 Pohjoisluode 3,4 1008,8 86 - -
03:53 15,3 12,9 7,4 Pohjoisluode 1,1 1008,8 86 - -
03:58 15,2 12,9 7,4 Pohjoisluode 1,4 1008,7 86 - -
04:03 15,2 12,8 9,3 Pohjoisluode 3,5 1008,7 86 - -
04:08 15,1 12,9 10,1 Pohjoisluode 5,6 1008,7 87 - -
04:13 15,1 12,9 3,7 Pohjoisluode 1,6 1008,6 87 - -
04:18 15,0 12,8 10,1 Pohjoisluode 4,3 1008,7 87 - -
04:24 15,0 12,8 7,4 Pohjoisluode 2,9 1008,7 87 - -
04:28 14,9 13,0 7,4 Pohjoisluode 3,5 1008,7 88 - -
04:33 14,9 12,9 9,3 Pohjoinen 3,1 1008,5 88 - 5
04:39 14,9 13,0 3,7 Pohjoinen   1008,6 88 - 7
04:43 14,9 12,9 9,3 Pohjoinen 1,6 1008,7 88 - 9
04:49 14,8 12,9 7,4 Pohjoinen 2,4 1008,7 88 - 11
04:53 14,8 12,9 5,6 Pohjoinen 2,1 1008,7 88 - 12
04:58 14,8 13,1 7,4 Pohjoinen 1,6 1008,7 89 - 14
05:04 14,8 13,1 9,3 Pohjoinen 5,1 1008,7 89 - 16
05:08 14,8 13,1 7,4 Pohjoinen 0,3 1008,7 89 - 18
05:14 14,8 13,1 3,7 Pohjoisluode 1,8 1008,7 89 - 19
05:18 14,8 13,1 3,7 Pohjoinen 0,5 1008,7 89 - 21
05:24 14,9 13,1 7,4 Pohjoinen 1,8 1008,7 89 - 26
05:29 14,9 13,2 7,4 Pohjoinen 1,8 1008,7 89 - 32
05:33 14,9 13,3 9,3 Pohjoinen 5,5 1008,7 90 - 35
05:39 15,0 13,4 3,4 Pohjoinen 0,6 1008,7 90 - 42
05:44 15,0 13,4 9,3 Pohjoisluode 1,1 1008,7 90 - 47
05:48 15,1 13,4 6,8 Pohjoisluode 1,6 1008,7 90 - 51
05:53 15,1 13,5 9,3 Pohjoinen 2,7 1008,7 90 - 53
05:58 15,2 13,6 10,1 Pohjoinen 6,8 1008,7 90 - 60
06:03 15,2 13,6 10,1 Pohjoinen 2,7 1008,7 90 - 67
06:09 15,3 13,5 10,1 Pohjoiskoillinen 6,3 1008,6 89 - 76
06:13 15,3 13,6 13,0 Pohjoiskoillinen 5,1 1008,6 89 - 81
06:18 15,5 13,7 10,1 Pohjoinen 1,8 1008,6 89 - 90
06:23 15,6 13,7 9,3 Pohjoinen 3,2 1008,6 89 - 93
06:28 15,6 13,8 11,1 Pohjoisluode 0,2 1008,6 89 - 95
06:34 15,6 13,6 9,3 Pohjoisluode 3,4 1008,6 88 - 95
06:38 15,6 13,6 8,4 Pohjoinen 2,7 1008,6 88 - 93
06:43 15,6 13,8 7,4 Pohjoinen 1,6 1008,6 89 - 84
06:49 15,6 13,7 11,1 Pohjoisluode 6,1 1008,6 89 - 72
06:53 15,6 13,7 13,5 Luode 3,1 1008,6 89 - 60
06:59 15,6 13,7 9,3 Pohjoinen 5,6 1008,6 89 - 54
07:03 15,6 13,8 10,1 Pohjoinen 4,7 1008,5 89 - 54
07:09 15,6 13,8 9,3 Pohjoinen 4,5 1008,5 89 - 39
07:14 15,7 13,8 8,4 Pohjoinen 4,3 1008,5 89 - 49
07:18 15,7 13,8 7,4 Pohjoinen 1,3 1008,5 89 - 42
07:24 15,7 13,7 7,4 Pohjoinen 3,9 1008,4 88 - 42
07:28 15,7 13,8 3,7 Pohjoinen 0,2 1008,4 89 - 51
07:34 15,7 13,9 9,3 Pohjoinen 2,4 1008,5 89 - 54
07:39 15,7 13,7 8,4 Pohjoinen 2,9 1008,5 88 - 60
07:43 15,7 13,7 10,1 Pohjoinen 3,7 1008,4 88 - 67
07:49 15,8 13,8 11,9 Pohjoisluode 6,1 1008,4 88 - 88
07:54 15,8 13,8 3,4 Pohjoisluode 1,0 1008,5 88 - 160
07:59 16,0 14,0 7,4 Pohjoinen 2,1 1008,5 88 - 172
08:04 16,2 14,1 8,4 Pohjoinen 3,4 1008,5 87 - 181
08:08 16,3 14,2 10,1 Pohjoisluode 6,8 1008,5 87 - 148
08:13 16,4 14,1 11,1 Pohjoinen 6,4 1008,5 86 - 220
08:18 16,5 14,2 10,1 Luode 9,0 1008,5 86 - 221
08:23 16,7 14,4 13,5 Pohjoisluode 7,7 1008,5 86 - 269
08:28 17,1 14,6 15,3 Pohjoisluode 8,0 1008,4 85 - 216
08:34 17,1 14,2 15,3 Pohjoiskoillinen 9,7 1008,4 83 - 262
08:38 17,0 14,3 9,3 Pohjoisluode 4,8 1008,5 84 - 204
08:43 17,1 14,2 14,8 Pohjoinen 8,7 1008,5 83 - 202
08:48 16,9 14,1 15,3 Luode 10,8 1008,5 83 - 200
08:53 17,1 14,2 13,0 Pohjoisluode 7,2 1008,4 83 - 255
08:59 17,2 14,1 15,3 Pohjoisluode 11,4 1008,4 82 - 264
09:03 17,2 14,1 13,5 Pohjoinen 9,0 1008,4 82 - 221
09:09 17,2 14,1 16,9 Pohjoisluode 10,8 1008,4 82 - 213
09:13 17,3 14,2 15,3 Pohjoinen 10,3 1008,5 82 - 148
09:18 17,2 14,1 15,3 Pohjoinen 10,6 1008,5 82 - 190
09:24 17,1 14,2 13,0 Pohjoisluode 7,2 1008,5 83 - 139
09:28 17,1 14,2 13,5 Länsiluode 10,6 1008,5 83 - 135
09:34 17,1 14,2 10,1 Pohjoinen 4,0 1008,5 83 - 132
09:39 17,2 14,3 13,0 Pohjoinen 4,5 1008,5 83 - 137
09:44 17,3 14,2 11,9 Pohjoinen 7,2 1008,5 82 - 257
09:49 17,6 14,3 15,3 Pohjoiskoillinen 6,8 1008,5 81 - 274
09:53 18,0 14,5 16,9 Pohjoisluode 10,8 1008,5 80 - 316
09:59 18,3 14,6 13,5 Pohjoisluode 9,0 1008,5 79 - 374
10:03 18,6 14,9 11,9 Pohjoiskoillinen 4,2 1008,5 79 - 622
10:09 18,9 14,8 9,3 Pohjoisluode 5,1 1008,5 77 - 582
10:14 18,6 14,3 11,9 Pohjoinen 7,1 1008,5 76 - 120
10:19 18,2 14,3 13,5 Pohjoisluode 8,0 1008,5 78 - 179
10:24 18,0 14,3 15,3 Pohjoisluode 8,2 1008,5 79 - 225
10:28 17,9 14,2 10,1 Pohjoisluode 5,8 1008,5 79 - 105
10:33 17,8 14,2 15,3 Pohjoisluode 9,8 1008,5 79 - 113
10:38 17,7 14,2 15,3 Pohjoisluode 11,6 1008,5 80 - 125
10:44 17,7 14,2 10,1 Pohjoinen 6,9 1008,5 80 - 199
10:48 17,8 14,3 11,9 Pohjoisluode 7,4 1008,5 80 - 392
10:53 18,2 14,5 11,1 Pohjoisluode 6,4 1008,4 79 - 276
10:58 18,6 14,8 11,9 Pohjoinen 8,0 1008,4 79 - 346
11:03 18,7 14,6 11,9 Pohjoiskoillinen 4,3 1008,4 77 - 297
11:09 18,7 14,6 15,3 Pohjoisluode 12,1 1008,4 77 - 232
11:13 18,5 14,4 16,9 Pohjoisluode 11,6 1008,5 77 - 146

Download your copy of this data-set  here

Our weather-data as stored at Weather Underground. Alkuperäinen skripti Jim McMurry. Sovitettu myös templatelle Leuven-Template.eu